createdAt,value
2022-07-31T00:02:18.434Z,4.97
2022-07-31T00:07:27.854Z,5.35
2022-07-31T00:12:36.934Z,5.32
2022-07-31T00:17:43.009Z,4.70
2022-07-31T00:22:52.935Z,5.22
2022-07-31T00:28:00.278Z,5.13
2022-07-31T00:33:05.552Z,5.70
2022-07-31T00:38:26.827Z,4.97
2022-07-31T00:43:33.084Z,5.07
2022-07-31T00:48:42.026Z,4.70
2022-07-31T00:53:47.143Z,4.80
2022-07-31T00:58:55.939Z,4.25
2022-07-31T01:04:02.729Z,2.97
2022-07-31T01:09:10.907Z,4.93
2022-07-31T01:14:15.523Z,4.95
2022-07-31T01:19:41.769Z,4.80
2022-07-31T01:25:06.344Z,4.43
2022-07-31T01:30:19.874Z,4.50
2022-07-31T01:35:49.445Z,4.55
2022-07-31T01:41:14.199Z,4.88
2022-07-31T01:46:31.812Z,3.97
2022-07-31T01:51:56.941Z,4.00
2022-07-31T01:57:09.734Z,3.70
2022-07-31T02:02:23.940Z,3.50
2022-07-31T02:07:29.713Z,3.50
2022-07-31T02:12:36.725Z,3.95
2022-07-31T02:17:45.104Z,3.38
2022-07-31T02:22:53.926Z,3.70
2022-07-31T02:27:59.264Z,3.47
2022-07-31T02:33:10.920Z,3.30
2022-07-31T02:38:24.056Z,3.28
2022-07-31T02:43:32.564Z,2.88
2022-07-31T02:48:43.946Z,3.08
2022-07-31T02:53:50.691Z,2.85
2022-07-31T02:58:55.878Z,3.30
2022-07-31T03:04:02.556Z,2.75
2022-07-31T03:09:07.386Z,3.03
2022-07-31T03:14:13.875Z,2.85
2022-07-31T03:19:24.696Z,2.67
2022-07-31T03:24:30.038Z,3.20
2022-07-31T03:29:43.153Z,2.95
2022-07-31T03:34:49.904Z,2.40
2022-07-31T03:39:54.196Z,2.67
2022-07-31T03:45:01.736Z,2.90
2022-07-31T03:50:11.806Z,2.85
2022-07-31T03:55:19.080Z,3.08
2022-07-31T04:00:27.524Z,3.35
2022-07-31T04:05:38.576Z,1.63
2022-07-31T04:10:48.473Z,3.10
2022-07-31T04:15:54.974Z,2.75
2022-07-31T04:21:00.708Z,3.30
2022-07-31T04:26:05.300Z,3.00
2022-07-31T04:31:11.655Z,2.15
2022-07-31T04:36:29.836Z,2.83
2022-07-31T04:41:36.542Z,3.00
2022-07-31T04:46:40.855Z,2.35
2022-07-31T04:51:46.322Z,2.88
2022-07-31T04:56:49.738Z,2.90
2022-07-31T05:01:54.993Z,1.95
2022-07-31T05:07:02.774Z,2.75
2022-07-31T05:12:08.676Z,3.15
2022-07-31T05:17:14.503Z,3.10
2022-07-31T05:22:23.845Z,3.13
2022-07-31T05:27:32.048Z,3.00
2022-07-31T05:32:42.129Z,2.88
2022-07-31T05:37:53.581Z,2.90
2022-07-31T05:42:58.841Z,2.40
2022-07-31T05:48:04.524Z,2.95
2022-07-31T05:53:17.740Z,2.83
2022-07-31T05:58:22.116Z,2.70
2022-07-31T06:03:27.946Z,2.70
2022-07-31T06:08:34.144Z,2.55
2022-07-31T06:13:38.747Z,2.55
2022-07-31T06:18:49.296Z,3.10
2022-07-31T06:24:07.225Z,2.80
2022-07-31T06:29:12.260Z,2.88
2022-07-31T06:34:20.138Z,2.80
2022-07-31T06:39:54.544Z,2.47
2022-07-31T06:45:06.497Z,3.20
2022-07-31T06:50:13.865Z,3.10
2022-07-31T06:55:21.063Z,3.33
2022-07-31T07:00:44.744Z,3.00
2022-07-31T07:06:01.125Z,2.88
2022-07-31T07:11:12.316Z,3.25
2022-07-31T07:16:25.069Z,2.78
2022-07-31T07:21:41.255Z,2.63
2022-07-31T07:26:56.881Z,2.78
2022-07-31T07:32:07.973Z,3.15
2022-07-31T07:37:16.249Z,2.55
2022-07-31T07:42:24.287Z,3.33
2022-07-31T07:48:06.849Z,2.70
2022-07-31T07:53:04.706Z,2.47
2022-07-31T08:03:49.497Z,2.70
2022-07-31T08:09:19.039Z,2.70
2022-07-31T08:14:27.133Z,2.50
2022-07-31T08:19:55.337Z,2.50
2022-07-31T08:25:24.771Z,2.10
2022-07-31T08:30:38.311Z,2.88
2022-07-31T08:35:51.295Z,2.58
2022-07-31T08:46:32.030Z,2.75
2022-07-31T08:51:51.424Z,2.95
2022-07-31T08:57:05.723Z,2.90
2022-07-31T09:02:24.189Z,2.70
2022-07-31T09:08:01.800Z,2.70
2022-07-31T09:13:21.834Z,3.00
2022-07-31T09:18:34.409Z,2.72
2022-07-31T09:23:54.664Z,2.90
2022-07-31T09:29:01.954Z,2.50
2022-07-31T09:34:12.209Z,2.20
2022-07-31T09:39:27.591Z,2.90
2022-07-31T09:44:55.683Z,2.40
2022-07-31T09:50:04.070Z,2.53
2022-07-31T09:55:39.431Z,2.47
2022-07-31T10:00:46.849Z,2.75
2022-07-31T10:05:56.827Z,2.45
2022-07-31T10:11:08.142Z,2.67
2022-07-31T10:16:28.974Z,2.60
2022-07-31T10:21:55.940Z,3.20
2022-07-31T10:27:09.139Z,3.05
2022-07-31T10:32:29.399Z,2.60
2022-07-31T10:37:41.384Z,2.70
2022-07-31T10:42:50.097Z,2.80
2022-07-31T10:53:11.718Z,1.85
2022-07-31T10:58:20.252Z,2.20
2022-07-31T11:03:41.156Z,3.20
2022-07-31T11:08:49.084Z,3.10
2022-07-31T11:19:02.491Z,2.40
2022-07-31T11:24:18.861Z,1.98
2022-07-31T11:29:59.800Z,2.10
2022-07-31T11:35:15.797Z,2.30
2022-07-31T11:40:32.392Z,2.60
2022-07-31T11:45:51.464Z,2.20
2022-07-31T11:50:59.266Z,1.90
2022-07-31T11:56:07.006Z,2.00
2022-07-31T12:01:14.414Z,1.73
2022-07-31T12:06:32.018Z,2.00
2022-07-31T12:11:55.042Z,1.90
2022-07-31T12:17:03.664Z,2.42
2022-07-31T12:22:21.960Z,2.38
2022-07-31T12:27:33.027Z,2.30
2022-07-31T12:37:51.154Z,2.13
2022-07-31T12:43:05.862Z,2.15
2022-07-31T12:48:23.154Z,2.40
2022-07-31T12:53:41.822Z,2.10
2022-07-31T12:58:54.813Z,2.35
2022-07-31T13:04:03.577Z,2.10
2022-07-31T13:09:11.551Z,2.35
2022-07-31T13:14:17.029Z,2.40
2022-07-31T13:19:26.307Z,2.13
2022-07-31T13:24:32.266Z,2.35
2022-07-31T13:30:03.202Z,2.08
2022-07-31T13:35:26.389Z,1.90
2022-07-31T13:40:53.048Z,1.90
2022-07-31T13:46:00.862Z,1.80
2022-07-31T13:51:09.661Z,1.80
2022-07-31T13:56:42.251Z,2.67
2022-07-31T14:02:03.912Z,1.90
2022-07-31T14:07:09.817Z,2.00
2022-07-31T14:12:16.632Z,1.80
2022-07-31T14:17:20.828Z,1.90
2022-07-31T14:22:30.496Z,1.70
2022-07-31T14:27:36.712Z,2.20
2022-07-31T14:32:41.826Z,2.20
2022-07-31T14:37:48.245Z,2.10
2022-07-31T14:42:51.503Z,2.00
2022-07-31T14:47:57.257Z,1.75
2022-07-31T14:53:07.050Z,1.67
2022-07-31T14:58:17.379Z,1.90
2022-07-31T15:03:42.172Z,2.10
2022-07-31T15:08:53.387Z,2.10
2022-07-31T15:14:05.555Z,2.03
2022-07-31T15:19:18.232Z,1.83
2022-07-31T15:24:25.966Z,2.10
2022-07-31T15:30:05.393Z,2.10
2022-07-31T15:35:09.870Z,1.80
2022-07-31T15:40:55.652Z,2.15
2022-07-31T15:46:06.462Z,2.80
2022-07-31T15:51:34.579Z,2.20
2022-07-31T15:56:47.516Z,2.20
2022-07-31T16:02:00.998Z,1.98
2022-07-31T16:08:32.588Z,2.90
2022-07-31T16:12:58.563Z,3.70
2022-07-31T16:18:18.221Z,2.03
2022-07-31T16:23:31.528Z,1.75
2022-07-31T16:28:39.093Z,2.03
2022-07-31T16:33:50.918Z,1.80
2022-07-31T16:39:19.000Z,2.78
2022-07-31T16:44:23.639Z,1.67
2022-07-31T16:49:36.093Z,1.92
2022-07-31T16:54:53.072Z,5.57
2022-07-31T17:00:15.119Z,1.90
2022-07-31T17:05:30.340Z,1.50
2022-07-31T17:10:42.556Z,1.95
2022-07-31T17:15:56.038Z,3.40
2022-07-31T17:21:09.017Z,1.80
2022-07-31T17:26:21.204Z,2.17
2022-07-31T17:31:34.750Z,1.50
2022-07-31T17:36:51.471Z,1.90
2022-07-31T17:42:03.308Z,1.80
2022-07-31T17:47:26.883Z,1.97
2022-07-31T17:52:43.710Z,2.22
2022-07-31T17:57:56.617Z,6.05
2022-07-31T18:03:05.992Z,1.45
2022-07-31T18:08:16.718Z,3.45
2022-07-31T18:13:26.121Z,2.30
2022-07-31T18:18:42.373Z,1.98
2022-07-31T18:23:55.318Z,1.77
2022-07-31T18:28:59.943Z,2.80
2022-07-31T18:34:19.102Z,1.90
2022-07-31T18:39:48.809Z,1.73
2022-07-31T18:45:02.745Z,2.30
2022-07-31T18:50:58.609Z,2.50
2022-07-31T18:55:52.657Z,2.30
2022-07-31T19:01:01.989Z,2.25
2022-07-31T19:06:15.836Z,2.58
2022-07-31T19:11:51.877Z,3.13
2022-07-31T19:17:04.645Z,3.55
2022-07-31T19:22:24.981Z,3.40
2022-07-31T19:27:46.820Z,3.28
2022-07-31T19:33:08.899Z,2.50
2022-07-31T19:38:35.483Z,2.78
2022-07-31T19:43:48.243Z,2.65
2022-07-31T19:49:04.151Z,2.85
2022-07-31T19:59:27.941Z,3.13
2022-07-31T20:04:44.355Z,2.55
2022-07-31T20:09:55.414Z,3.40
2022-07-31T20:15:19.508Z,3.03
2022-07-31T20:20:30.549Z,3.15
2022-07-31T20:25:40.715Z,3.42
2022-07-31T20:30:59.525Z,2.88
2022-07-31T20:36:11.232Z,2.67
2022-07-31T20:41:19.934Z,2.90
2022-07-31T20:46:25.487Z,2.80
2022-07-31T20:51:44.066Z,2.20
2022-07-31T20:56:49.191Z,2.63
2022-07-31T21:01:58.555Z,2.15
2022-07-31T21:07:14.538Z,2.40
2022-07-31T21:12:20.970Z,3.17
2022-07-31T21:17:31.221Z,2.28
2022-07-31T21:22:41.438Z,2.22
2022-07-31T21:27:49.828Z,2.58
2022-07-31T21:32:54.979Z,2.70
2022-07-31T21:38:13.436Z,2.58
2022-07-31T21:43:23.025Z,2.78
2022-07-31T21:48:35.940Z,2.40
2022-07-31T21:53:44.346Z,2.50
2022-07-31T21:58:58.504Z,1.67
2022-07-31T22:04:03.000Z,2.10
2022-07-31T22:09:13.629Z,2.40
2022-07-31T22:14:25.881Z,2.70
2022-07-31T22:25:02.911Z,2.00
2022-07-31T22:30:20.962Z,2.50
2022-07-31T22:35:30.287Z,2.80
2022-07-31T22:40:43.961Z,2.70
2022-07-31T22:45:58.750Z,1.83
2022-07-31T22:51:10.857Z,1.85
2022-07-31T22:56:24.631Z,2.95
2022-07-31T23:01:30.276Z,2.28
2022-07-31T23:06:37.524Z,1.55
2022-07-31T23:11:50.483Z,2.58
2022-07-31T23:16:58.788Z,2.33
2022-07-31T23:22:18.528Z,2.75
2022-07-31T23:27:32.144Z,2.53
2022-07-31T23:32:46.057Z,2.33
2022-07-31T23:37:54.265Z,2.40
2022-07-31T23:43:20.619Z,2.42
2022-07-31T23:48:31.476Z,2.88
2022-07-31T23:53:41.644Z,2.50
2022-07-31T23:58:52.032Z,2.33
